Pagrindinis puslapis
METAR-TAF:

METAR-TAF

Oro uostai :

Kamišlis, Sirija

platuma: 37-03N, ilguma: 041-13E, Aukštis: 455 m

Dabartinis oras

Ataskaita buvo paskelbta 44 minutes, ne 20:00 UTC
Vėjas 10 kt iš Šiaurės/Šiaurės Vakarų
Temperatūra 10°C
Drėgmė 76%
Slėgis 1020 hPa
Matomumas: 8000 m
Išsisklaidę debesys ne aukštis 2600 ft
Su prošvaistėmis ne aukštis 10000 ft

METAR: OSKL 152000Z 33010KT 8000 SCT026 BKN100 10/06 Q1020

Laikas: 22:44 (20:44 UTC)


TAF: trūkstamas

Orai ataskaitas ir orų prognozės (METAR, TAF).

turimą stotys yra geltonos ir raudonos taškus žemėlapyje.

Perkelti pele per norėdami pamatyti stoties vardą.

Tada spustelėkite, norėdami matyti oro stebėjimo ir prognozės.

Norėdami pakeisti žemėlapį: spustelėkite ant žalios mygtukų su juodo kryžiaus žemyn,; žalią mygtuką su brūkšneliu, jei norite nutolinti; arba žalių rodyklių gretimoms žemėlapius.


METAR-TAF: